Skip Navigation LinksHome page > Weather > Current weather Skip Navigation Links

Current Weather

Chicago O'Hare Intl, Chicago

For information only: do not use for flight planning or navigation.
Latest weather
Observation time Saturday, August 24, 2019 11:51 PM CDT
Local time Sunday, August 25, 2019 12:41 AM CDT
Flight conditions Visual Meteorological Conditions
Winds
Wind direction Southeast (130°)
Wind speed 5 mph
Visibility 10 mi.
Sky condition
Ceiling unlimited
Cloud layer scattered clouds 4,600 ft.
Cloud layer scattered clouds 25,000 ft.
Temperature 65°F
Dewpoint 52°F
Altimeter 30.19 in.Hg
Derived measurements
Relative humidity 63%
Density altitude 936 ft.
Sea-level pressure 30.18 in.Hg
Remarks
Automated weather observing station with precipitation discriminator.
METAR KORD 250451Z 13004KT 10SM SCT046 SCT250 18/11 A3019 RMK AO2 SLP221 T01830111

Settings

Location code

InnerDrive.Weather 4.0.6770.0 Release CLR 4.0.30319.42000
Copyright ©2018 Inner Drive Technology. All rights reserved. Portions Copyright ©1986-2018 David Braverman.

Find weather

Site navigation


Skip Navigation Links

Place info

Page info

PayPal - The safer, easier way to pay online!

Return home.

Copyright ©2019 Inner Drive Technology. Purveyors of fine, hand-crafted computer software. Page printed 2019-08-25T05:41:29 UTC.